Lankin, North Dakota
Current Conditions -  °F | °C
As of 11:15 AM on Friday 31 Oct 2014 (Local Time) from KGAF Reporting Station
Clear Clear  
Wind Chill: 17°   Ceiling: Unl
Heat Index: 27°   Visibility: 10mi
Dew Point: 21°   Wind: 10mph
Humidity: 80%   Direction: 170°S
Pressure: 30.58"   Gusts: NA
Location:  48.31°N, 97.93°W
Report Text: KGAF 311615Z AUTO 17009KT 10SM CLR M03/M06 A3058 RMK AO2
Loading
Personal Weather Stations






























Interactive Weather Map
Tropical Storm Tracking
New forecast layout! Learn more

10-Day Weather Forecast

Advertisements
Track Severe Weather on mobile